Terminal Aerodrome Forecast
Issued by NWS

Home | Current Version | Previous Version | Text Only | Print | Product List | Glossary On
Versions: 1 2 3 4 5 6 7 8 9 10 11 12 13 14 15 16 17 18
000
FTUS41 KGYX 292115 AAB
TAFHIE
TAF AMD
KHIE 292115Z 2921/3018 06005KT 5SM HZ SCT045 SCT120
     FM300200 VRB03KT 5SM -DZ BR OVC012
     FM301100 VRB03KT 5SM SHRA BR OVC010 WS015/23030KT
     FM301600 24008KT 6SM HZ BKN035=

USA.gov is the U.S. government's official web portal to all federal, state and local government web resources and services.